Home   Weather   Germany   Wolfsburg   Past weeks
Flag for Germany

Past Weather in Wolfsburg, Lower Saxony, Germany — Yesterday and Last 2 Weeks

Currently: 57 °F. Low clouds. (Weather station: Braunschweig Wolfsburg, Germany). See more current weather

Past Weather in Wolfsburg — Graph

°F

Wolfsburg Temperature Yesterday

Maximum temperature yesterday: 66 °F (at 4:50 pm)
Minimum temperature yesterday: 59 °F (at 5:50 am)
Average temperature yesterday: 61 °F

High & Low Weather Summary for the Past Weeks

 TemperatureHumidityPressure
High84 °F (Sep 9, 3:50 pm)100% (Sep 2, 3:20 am)30.36 "Hg (Sep 2, 3:20 am)
Low43 °F (Sep 5, 4:50 am)37% (Sep 9, 2:50 pm)29.80 "Hg (Sep 15, 3:20 pm)
Average62 °F81%30.07 "Hg
* Reported Sep 2 3:20 am — Sep 17 3:50 am, Wolfsburg. Weather by CustomWeather, © 2021

Note: Actual official high and low records may vary slightly from our data, if they occured in-between our weather recording intervals... More about our weather records

Wolfsburg Weather History for the Previous 24 Hours

Scroll right to see more
 ConditionsComfort  
Time TempWeatherWind HumidityBarometerVisibility
3:50 am
Fri, Sep 17
57 °FMostly cloudy.10 mph88%29.95 "HgN/A
3:20 am57 °FOvercast.10 mph88%29.98 "HgN/A
2:50 am59 °FOvercast.9 mph82%29.98 "HgN/A
2:20 am59 °FMostly cloudy.10 mph82%29.98 "HgN/A
1:50 am59 °FMostly cloudy.10 mph82%29.98 "HgN/A
1:20 am59 °FOvercast.10 mph82%29.98 "HgN/A
12:50 am59 °FOvercast.10 mph82%29.98 "HgN/A
12:20 am59 °FOvercast.9 mph82%29.98 "HgN/A
11:50 pm
Thu, Sep 16
59 °FOvercast.8 mph88%29.98 "HgN/A
11:20 pm59 °FOvercast.8 mph88%29.98 "HgN/A
10:50 pm59 °FOvercast.7 mph88%29.98 "HgN/A
10:20 pm59 °FMostly cloudy.7 mph88%29.98 "HgN/A
9:50 pm59 °FOvercast.8 mph88%29.98 "HgN/A
9:20 pm59 °FOvercast.9 mph88%29.98 "HgN/A
8:50 pm59 °FMostly cloudy.10 mph88%29.98 "HgN/A
8:20 pm59 °FOvercast.8 mph88%29.95 "HgN/A
7:50 pm59 °FPassing clouds.8 mph94%29.95 "HgN/A
7:20 pm59 °FSunny.8 mph94%29.95 "Hg10 mi
6:50 pm61 °FSunny.8 mph88%29.95 "Hg10 mi
6:20 pm61 °FScattered showers. Broken clouds.14 mph88%29.95 "Hg6 mi
5:50 pm63 °FSprinkles. Mostly cloudy.13 mph77%29.95 "HgN/A
5:20 pm64 °FScattered showers. Scattered clouds.13 mph73%29.92 "HgN/A
4:50 pm66 °FScattered clouds.12 mph68%29.95 "HgN/A
4:20 pm64 °FScattered clouds.13 mph73%29.95 "HgN/A
3:50 pm64 °FScattered clouds.13 mph68%29.95 "HgN/A
3:20 pm64 °FScattered clouds.14 mph68%29.95 "HgN/A
2:50 pm64 °FPartly sunny.13 mph73%29.95 "HgN/A
2:20 pm64 °FScattered clouds.13 mph73%29.95 "HgN/A
1:50 pm63 °FPartly sunny.13 mph73%29.95 "HgN/A
1:20 pm64 °FBroken clouds.13 mph73%29.95 "HgN/A
12:50 pm63 °FPartly sunny.12 mph77%29.95 "HgN/A
12:20 pm63 °FPartly sunny.10 mph83%29.95 "HgN/A
11:50 am61 °FDrizzle. Partly sunny.14 mph77%29.95 "Hg5 mi
11:20 am61 °FDrizzle. Partly sunny.13 mph77%29.95 "Hg5 mi
10:20 am61 °FBroken clouds.12 mph77%29.95 "HgN/A
9:50 am61 °FPartly sunny.13 mph77%29.95 "HgN/A
9:20 am59 °FPartly sunny.12 mph82%29.95 "HgN/A
8:50 am59 °FPartly sunny.10 mph82%29.92 "HgN/A
8:20 am59 °FPartly sunny.9 mph82%29.92 "HgN/A
7:50 am59 °FPartly sunny.9 mph82%29.92 "HgN/A
7:20 am59 °FPartly sunny.8 mph82%29.92 "HgN/A
6:50 am59 °FPassing clouds.9 mph82%29.92 "HgN/A
6:20 am59 °FOvercast.10 mph82%29.92 "HgN/A
5:50 am59 °FMostly cloudy.12 mph88%29.92 "HgN/A
5:20 am61 °FMostly cloudy.9 mph88%29.89 "HgN/A
Weather by CustomWeather, © 2021

See weather overview